Monroeville, Pennsylvania
Current Conditions -  °F | °C
As of 5:53 PM on Monday 20 Oct 2014 (Local Time) from KAGC Reporting Station
Overcast Overcast  
Wind Chill: 56°   Ceiling: 10000
Heat Index: 56°   Visibility: 10mi
Dew Point: 38°   Wind: 8mph
Humidity: 51%   Direction: 180°S
Pressure: 29.88"   Gusts: NA
Location:  40.42°N, 79.79°W
Report Text: KAGC 202153Z 18007KT 10SM FEW060 OVC100 13/03 A2988 RMK AO2 SLP127 T01330033
Loading
Personal Weather Stations






























Interactive Weather Map
Tropical Storm Tracking
New forecast layout! Learn more

10-Day Weather Forecast

Advertisements
Track Severe Weather on mobile